Time;durP1;ratioP1;P1;durP2;ratioP2;P2;SDS_P1;SDS_P2;PMS_P1;PMS_P2;Temp;Humidity;BMP_temperature;BMP_pressure;BME280_temperature;BME280_humidity;BME280_pressure;Samples;Min_cycle;Max_cycle;Signal;HPM_P1;HPM_P2
2022/11/27 00:01:48;;;;;;;7.78;6.47;;;;;;;21.44;42.95;95843.50;4985558;28;20486;-67
2022/11/27 00:04:14;;;;;;;8.90;6.90;;;;;;;21.43;42.79;95842.00;4981216;28;20465;-65
2022/11/27 00:06:39;;;;;;;8.73;6.55;;;;;;;21.32;43.11;95825.59;4985362;28;20442;-65
2022/11/27 00:09:10;;;;;;;8.32;6.30;;;;;;;21.32;42.95;95831.03;4953247;28;20129;-65
2022/11/27 00:11:38;;;;;;;8.63;7.00;;;;;;;19.36;42.86;95546.19;4955424;28;20461;-64
2022/11/27 00:14:04;;;;;;;8.75;6.50;;;;;;;21.35;42.89;95840.94;4970689;28;20504;-65
2022/11/27 00:16:29;;;;;;;7.43;5.95;;;;;;;21.28;42.83;95833.19;4989009;28;20057;-66
2022/11/27 00:18:55;;;;;;;8.70;6.47;;;;;;;21.37;42.89;95833.03;5002772;28;20411;-67
2022/11/27 00:21:22;;;;;;;8.35;6.75;;;;;;;20.34;42.79;95683.13;4972474;28;20541;-64
2022/11/27 00:23:48;;;;;;;7.90;6.18;;;;;;;21.41;43.03;95866.19;4968901;28;20147;-66
2022/11/27 00:26:14;;;;;;;8.70;6.90;;;;;;;20.47;42.87;95707.97;4948674;28;20510;-65
2022/11/27 00:28:39;;;;;;;7.90;6.35;;;;;;;21.38;43.21;95850.13;4964125;28;20045;-65
2022/11/27 00:31:15;;;;;;;7.95;6.50;;;;;;;21.34;42.77;95861.16;4982602;28;20053;-65
2022/11/27 00:33:41;;;;;;;8.52;6.68;;;;;;;20.40;42.81;95719.19;4973175;28;20054;-66
2022/11/27 00:36:07;;;;;;;8.70;6.68;;;;;;;21.39;42.77;95857.78;4981444;28;20053;-65
2022/11/27 00:38:32;;;;;;;8.73;6.70;;;;;;;21.15;42.73;95826.59;4982005;28;20045;-64
2022/11/27 00:41:07;;;;;;;8.68;6.65;;;;;;;20.33;42.72;95706.06;4969369;28;20060;-65
2022/11/27 00:43:34;;;;;;;8.30;6.70;;;;;;;20.05;42.63;95661.53;4978521;28;20050;-65
2022/11/27 00:46:00;;;;;;;8.90;6.63;;;;;;;20.47;42.83;95724.25;4972403;28;20038;-64
2022/11/27 00:48:25;;;;;;;8.77;6.68;;;;;;;21.25;42.88;95842.28;5005165;28;20057;-66
2022/11/27 00:50:51;;;;;;;8.40;6.88;;;;;;;21.30;43.07;95866.06;4984211;28;20181;-63
2022/11/27 00:53:16;;;;;;;8.10;6.65;;;;;;;20.81;42.88;95785.94;5000412;28;20079;-64
2022/11/27 00:55:41;;;;;;;7.32;6.05;;;;;;;21.31;43.08;95866.81;5003749;28;20026;-65
2022/11/27 00:58:07;;;;;;;8.23;6.25;;;;;;;20.21;42.94;95695.53;4969677;28;20045;-64
2022/11/27 01:00:32;;;;;;;8.57;6.75;;;;;;;21.31;42.94;95864.09;4988143;28;20088;-66
2022/11/27 01:02:58;;;;;;;8.98;6.40;;;;;;;21.19;42.74;95865.91;4984916;28;20516;-66
2022/11/27 01:05:23;;;;;;;7.47;6.13;;;;;;;21.11;42.95;95826.81;4949012;28;20568;-65
2022/11/27 01:07:49;;;;;;;8.70;6.22;;;;;;;21.29;42.19;95859.13;4971642;28;20343;-65
2022/11/27 01:10:14;;;;;;;7.13;6.30;;;;;;;21.30;43.01;95870.75;4975827;28;20046;-65
2022/11/27 01:12:40;;;;;;;7.05;6.22;;;;;;;21.28;42.84;95857.63;4997974;28;20511;-64
2022/11/27 01:15:05;;;;;;;7.63;6.30;;;;;;;21.17;42.89;95830.34;4992210;28;20050;-65
2022/11/27 01:17:31;;;;;;;9.70;6.85;;;;;;;20.91;42.75;95788.03;4987900;28;20089;-62
2022/11/27 01:19:56;;;;;;;7.40;6.22;;;;;;;21.20;42.96;95829.38;4987868;28;20062;-64
2022/11/27 01:22:22;;;;;;;8.60;6.55;;;;;;;21.27;42.88;95844.53;4970337;28;20065;-64
2022/11/27 01:24:47;;;;;;;7.55;6.28;;;;;;;21.10;42.91;95825.28;4963094;28;20034;-64
2022/11/27 01:27:13;;;;;;;8.38;6.47;;;;;;;21.21;42.80;95836.31;4963874;28;20173;-65
2022/11/27 01:29:39;;;;;;;7.43;6.05;;;;;;;21.10;42.65;95806.28;4986105;28;20049;-64
2022/11/27 01:32:04;;;;;;;8.88;6.60;;;;;;;21.19;42.99;95827.16;4999588;28;20496;-65
2022/11/27 01:34:30;;;;;;;8.77;6.50;;;;;;;20.82;42.70;95771.13;4971845;28;20446;-64
2022/11/27 01:36:55;;;;;;;8.35;6.70;;;;;;;20.28;42.87;95693.16;4977199;28;20514;-65
2022/11/27 01:39:23;;;;;;;8.00;6.53;;;;;;;21.21;43.15;95825.47;4950327;28;20734;-64
2022/11/27 01:41:48;;;;;;;8.80;6.57;;;;;;;21.18;43.20;95826.41;4967996;28;20139;-65
2022/11/27 01:44:22;;;;;;;7.85;6.18;;;;;;;21.22;42.91;95826.94;4997216;28;20867;-65
2022/11/27 01:46:50;;;;;;;7.45;6.07;;;;;;;19.72;43.23;95606.06;5005011;28;20026;-64
2022/11/27 01:49:36;;;;;;;8.02;6.38;;;;;;;21.24;42.99;95824.50;4968756;28;20068;-65
2022/11/27 01:52:03;;;;;;;8.32;6.50;;;;;;;20.96;42.74;95781.19;4991384;28;20056;-66
2022/11/27 01:54:52;;;;;;;8.13;6.72;;;;;;;21.21;42.97;95813.81;4981370;28;20046;-65
2022/11/27 01:57:40;;;;;;;8.18;6.57;;;;;;;20.77;43.00;95779.94;4974611;28;20050;-64
2022/11/27 02:00:06;;;;;;;7.40;6.40;;;;;;;21.21;42.83;95820.03;4969290;28;20065;-64
2022/11/27 02:02:32;;;;;;;7.80;6.43;;;;;;;21.22;42.90;95821.50;4987351;28;20060;-66
2022/11/27 02:04:57;;;;;;;7.50;5.97;;;;;;;21.22;42.86;95821.50;4988368;28;20037;-64
2022/11/27 02:07:22;;;;;;;7.57;6.07;;;;;;;20.63;42.77;95737.28;4965814;28;20050;-65
2022/11/27 02:09:48;;;;;;;7.85;6.15;;;;;;;21.20;42.79;95829.38;4979748;28;20073;-64
2022/11/27 02:12:15;;;;;;;7.93;6.47;;;;;;;21.19;43.13;95817.03;4984752;28;20045;-63
2022/11/27 02:15:00;;;;;;;8.05;6.25;;;;;;;21.03;42.87;95806.72;4970436;28;20117;-64
2022/11/27 02:17:28;;;;;;;8.65;6.57;;;;;;;21.19;42.80;95827.88;4996497;28;20042;-66
2022/11/27 02:20:15;;;;;;;8.65;6.80;;;;;;;21.19;42.84;95833.31;4993354;28;20137;-63
2022/11/27 02:23:08;;;;;;;7.70;6.22;;;;;;;20.29;42.71;95691.94;4989639;28;20070;-65
2022/11/27 02:25:37;;;;;;;8.00;6.25;;;;;;;21.16;42.89;95828.84;4979849;28;20073;-66
2022/11/27 02:28:28;;;;;;;7.47;6.25;;;;;;;21.18;42.89;95825.63;4977600;28;20050;-64
2022/11/27 02:31:10;;;;;;;7.75;6.57;;;;;;;21.04;42.91;95813.63;4954264;28;20096;-66
2022/11/27 02:33:37;;;;;;;7.65;6.10;;;;;;;20.97;43.04;95799.72;4971054;28;20050;-66
2022/11/27 02:36:08;;;;;;;8.27;6.30;;;;;;;21.14;43.02;95835.97;4954988;28;20046;-66
2022/11/27 02:38:40;;;;;;;7.57;6.03;;;;;;;21.04;42.93;95816.34;4953989;28;20522;-64
2022/11/27 02:41:23;;;;;;;7.05;5.90;;;;;;;21.15;42.91;95835.50;4985908;28;20034;-67
2022/11/27 02:43:49;;;;;;;7.95;6.10;;;;;;;20.83;42.73;95778.06;4987617;28;20026;-62
2022/11/27 02:46:15;;;;;;;8.40;6.70;;;;;;;18.77;42.58;95472.88;4956773;28;20670;-64
2022/11/27 02:48:47;;;;;;;7.82;6.28;;;;;;;21.14;42.85;95836.72;4970516;28;20068;-66
2022/11/27 02:51:13;;;;;;;7.90;6.47;;;;;;;21.13;42.48;95837.94;4977576;28;20038;-64
2022/11/27 02:53:45;;;;;;;7.55;5.95;;;;;;;20.02;42.61;95678.72;4963373;28;20113;-66
2022/11/27 02:56:12;;;;;;;7.30;6.22;;;;;;;21.05;42.67;95823.25;4953129;28;20080;-67
2022/11/27 02:58:38;;;;;;;7.78;6.10;;;;;;;21.15;43.10;95848.31;4970535;28;20076;-65
2022/11/27 03:01:04;;;;;;;7.22;6.10;;;;;;;20.97;42.64;95805.16;4957579;28;20087;-64
2022/11/27 03:03:33;;;;;;;7.18;6.30;;;;;;;20.32;42.81;95701.84;4968237;28;20050;-66
2022/11/27 03:06:00;;;;;;;8.45;6.40;;;;;;;21.13;43.00;95878.66;4940567;28;20042;-65
2022/11/27 03:08:34;;;;;;;7.78;6.50;;;;;;;21.14;42.73;95842.16;4979974;28;20521;-64
2022/11/27 03:11:04;;;;;;;7.43;6.13;;;;;;;21.14;42.90;95842.16;4975749;28;20022;-65
2022/11/27 03:13:31;;;;;;;8.23;6.15;;;;;;;21.02;42.77;95834.34;4953068;28;20065;-65
2022/11/27 03:16:09;;;;;;;8.05;6.95;;;;;;;21.14;42.60;95847.59;4985571;28;20041;-65
2022/11/27 03:18:50;;;;;;;7.88;6.28;;;;;;;20.83;42.67;95816.06;5003298;28;20061;-65
2022/11/27 03:24:04;;;;;;;7.45;6.05;;;;;;;21.10;42.74;95857.88;4975556;28;20158;-63
2022/11/27 03:26:29;;;;;;;7.65;6.43;;;;;;;21.13;42.85;95853.47;4946881;28;20045;-63
2022/11/27 03:28:55;;;;;;;7.80;6.47;;;;;;;20.89;42.75;95819.59;4990361;28;20402;-63
2022/11/27 03:31:22;;;;;;;8.95;7.15;;;;;;;21.08;42.68;95860.34;4941212;28;20042;-63
2022/11/27 03:33:48;;;;;;;8.30;6.40;;;;;;;21.10;42.89;95841.59;4981560;28;20091;-65
2022/11/27 03:36:15;;;;;;;7.60;6.28;;;;;;;21.11;42.71;95837.66;5003408;28;20089;-63
2022/11/27 03:38:40;;;;;;;8.00;6.32;;;;;;;21.09;42.72;95845.53;4952358;28;20042;-63
2022/11/27 03:44:22;;;;;;;8.43;6.95;;;;;;;21.09;42.71;95845.53;4974936;28;20057;-62
2022/11/27 03:47:15;;;;;;;6.80;5.85;;;;;;;20.15;42.73;95703.56;4947108;28;20055;-61
2022/11/27 03:49:56;;;;;;;8.10;6.47;;;;;;;20.97;42.77;95822.19;4972535;28;20054;-63
2022/11/27 03:52:27;;;;;;;7.53;6.40;;;;;;;21.09;42.92;95834.69;4986449;28;20479;-63
2022/11/27 03:55:00;;;;;;;8.02;6.55;;;;;;;21.07;42.87;95837.09;4981470;28;20034;-61
2022/11/27 03:57:36;;;;;;;7.70;6.30;;;;;;;21.02;42.79;95835.06;4979632;28;20054;-62
2022/11/27 04:00:05;;;;;;;7.15;6.00;;;;;;;20.95;43.00;95823.13;4970668;28;20038;-61
2022/11/27 04:02:45;;;;;;;7.15;6.40;;;;;;;21.05;42.82;95834.13;4972584;28;20062;-61
2022/11/27 04:05:11;;;;;;;7.72;5.97;;;;;;;21.05;42.79;95855.84;4966088;28;20037;-63
2022/11/27 04:07:37;;;;;;;8.48;6.72;;;;;;;20.93;43.00;95820.16;4955669;28;20163;-61
2022/11/27 04:10:03;;;;;;;7.40;5.88;;;;;;;20.75;42.79;95787.81;4987084;28;20046;-63
2022/11/27 04:12:28;;;;;;;8.35;6.70;;;;;;;20.85;42.80;95797.31;4967563;28;20420;-61
2022/11/27 04:14:54;;;;;;;8.65;6.50;;;;;;;21.01;42.75;95817.28;4984298;28;20054;-61
2022/11/27 04:17:19;;;;;;;8.05;6.45;;;;;;;21.04;42.80;95826.44;4957612;28;20038;-62
2022/11/27 04:19:45;;;;;;;7.95;6.75;;;;;;;20.77;42.75;95785.38;4967587;28;20047;-62
2022/11/27 04:22:10;;;;;;;7.63;5.90;;;;;;;21.04;42.91;95821.75;4951835;28;20035;-59
2022/11/27 04:24:35;;;;;;;8.40;7.00;;;;;;;20.88;42.95;95807.22;4986115;28;20054;-60
2022/11/27 04:27:01;;;;;;;7.03;6.18;;;;;;;21.01;42.50;95828.13;4985011;28;20054;-64
2022/11/27 04:29:26;;;;;;;8.30;6.13;;;;;;;20.19;42.52;95708.78;4985194;28;20042;-62
2022/11/27 04:31:52;;;;;;;7.85;6.15;;;;;;;20.93;42.60;95817.44;4983256;28;20026;-63
2022/11/27 04:34:17;;;;;;;7.93;6.32;;;;;;;21.01;42.85;95822.72;4982766;28;20042;-62
2022/11/27 04:36:42;;;;;;;8.18;6.72;;;;;;;20.97;42.78;95849.34;4974500;28;20043;-63
2022/11/27 04:39:08;;;;;;;9.60;6.53;;;;;;;20.95;42.97;95828.56;4971553;28;20053;-62
2022/11/27 04:41:33;;;;;;;7.55;6.18;;;;;;;20.96;43.00;95840.91;4972305;28;20062;-61
2022/11/27 04:43:59;;;;;;;7.93;6.68;;;;;;;20.93;43.03;95831.75;4981858;28;20641;-63
2022/11/27 04:46:24;;;;;;;7.70;6.63;;;;;;;20.99;42.83;95846.88;4965258;28;20053;-63
2022/11/27 04:48:50;;;;;;;7.72;6.50;;;;;;;20.99;42.91;95846.16;4987275;28;20054;-64
2022/11/27 04:51:15;;;;;;;7.80;6.60;;;;;;;20.86;42.50;95831.41;4971142;28;20515;-62
2022/11/27 04:53:41;;;;;;;6.82;6.00;;;;;;;20.17;42.67;95720.13;4980279;28;20483;-64
2022/11/27 04:56:06;;;;;;;8.70;6.60;;;;;;;20.97;42.77;95854.75;4965635;28;20038;-63
2022/11/27 04:58:32;;;;;;;8.45;6.38;;;;;;;20.96;43.08;95864.13;4966292;28;20715;-63
2022/11/27 05:00:57;;;;;;;7.60;6.40;;;;;;;20.96;42.81;95853.25;4986454;28;20042;-63
2022/11/27 05:03:22;;;;;;;8.13;6.50;;;;;;;20.84;42.91;95822.97;4970561;28;20047;-63
2022/11/27 05:05:57;;;;;;;6.68;5.88;;;;;;;20.96;42.86;95846.34;4986580;28;20057;-61
2022/11/27 05:08:23;;;;;;;8.25;6.65;;;;;;;20.95;42.85;95839.41;4954189;28;20033;-62
2022/11/27 05:11:02;;;;;;;7.10;6.40;;;;;;;20.79;42.78;95815.50;4976545;28;20711;-62
2022/11/27 05:13:28;;;;;;;7.95;6.47;;;;;;;20.95;42.92;95839.41;4930005;28;20071;-63
2022/11/27 05:15:53;;;;;;;7.68;6.43;;;;;;;20.20;42.66;95732.72;4971241;28;20042;-61
2022/11/27 05:18:19;;;;;;;7.97;6.78;;;;;;;20.74;42.80;95813.47;4937335;28;20054;-63
2022/11/27 05:20:44;;;;;;;8.60;6.57;;;;;;;20.97;42.79;95837.72;4983324;28;20091;-64
2022/11/27 05:23:10;;;;;;;7.70;6.20;;;;;;;20.90;42.72;95821.09;4971564;28;20035;-63
2022/11/27 05:25:35;;;;;;;7.38;5.97;;;;;;;20.85;42.88;95857.03;4978738;28;20097;-62
2022/11/27 05:28:01;;;;;;;7.32;6.28;;;;;;;20.95;42.92;95844.84;4983308;28;20057;-63
2022/11/27 05:30:26;;;;;;;7.50;6.43;;;;;;;20.87;42.77;95843.75;4986188;28;20042;-62
2022/11/27 05:32:51;;;;;;;8.07;6.40;;;;;;;20.91;42.92;95855.91;4950526;28;20038;-63
2022/11/27 05:35:17;;;;;;;7.85;6.70;;;;;;;20.13;42.87;95738.56;4968260;28;20034;-62
2022/11/27 05:37:42;;;;;;;7.93;6.47;;;;;;;20.91;42.77;95866.00;4984016;28;20031;-62
2022/11/27 05:40:08;;;;;;;9.63;6.60;;;;;;;20.85;42.86;95840.75;4980200;28;20152;-62
2022/11/27 05:42:33;;;;;;;7.57;6.22;;;;;;;18.97;42.62;95559.53;4966348;28;20065;-61
2022/11/27 05:44:59;;;;;;;7.75;6.30;;;;;;;20.10;43.00;95734.06;4973454;28;20531;-63
2022/11/27 05:47:24;;;;;;;8.02;6.35;;;;;;;20.99;42.60;95852.31;4923964;28;20515;-64
2022/11/27 05:49:50;;;;;;;7.72;6.32;;;;;;;21.06;42.62;95862.78;4961667;28;20117;-64
2022/11/27 05:52:15;;;;;;;7.40;6.32;;;;;;;20.61;42.78;95810.25;4976500;28;20145;-65
2022/11/27 05:54:41;;;;;;;7.55;6.18;;;;;;;21.10;42.62;95863.31;4979439;28;20404;-62
2022/11/27 05:57:06;;;;;;;7.22;6.03;;;;;;;21.10;42.87;95857.88;4967730;28;20082;-63
2022/11/27 05:59:32;;;;;;;8.32;6.80;;;;;;;20.85;43.41;95829.88;4983672;28;20114;-63
2022/11/27 06:01:57;;;;;;;8.40;6.70;;;;;;;21.10;44.30;95862.56;4945785;28;20030;-61
2022/11/27 06:04:22;;;;;;;9.20;6.50;;;;;;;20.97;44.39;95846.63;4978613;28;20046;-62
2022/11/27 06:06:48;;;;;;;7.45;6.25;;;;;;;20.87;43.93;95838.31;4967239;28;20208;-61
2022/11/27 06:09:13;;;;;;;7.18;5.97;;;;;;;21.04;44.05;95881.50;4983481;28;20039;-63
2022/11/27 06:11:39;;;;;;;8.40;6.47;;;;;;;20.80;44.13;95838.72;4971483;28;20480;-62
2022/11/27 06:14:07;;;;;;;8.35;6.72;;;;;;;20.92;43.93;95878.38;4981255;28;20454;-61
2022/11/27 06:16:32;;;;;;;8.77;6.20;;;;;;;20.98;43.91;95860.94;4975606;28;20076;-62
2022/11/27 06:18:58;;;;;;;8.32;6.22;;;;;;;20.93;43.97;95850.00;4980444;28;20541;-62
2022/11/27 06:21:23;;;;;;;9.02;6.55;;;;;;;20.94;43.59;95870.50;4964807;28;20512;-61
2022/11/27 06:23:52;;;;;;;8.27;5.70;;;;;;;20.89;43.46;95863.03;4974153;28;20543;-64
2022/11/27 06:26:19;;;;;;;8.38;7.00;;;;;;;20.97;43.52;95876.47;4960308;28;20026;-63
2022/11/27 06:28:45;;;;;;;7.55;5.85;;;;;;;20.76;43.55;95843.56;4970554;28;20077;-63
2022/11/27 06:31:12;;;;;;;7.07;6.10;;;;;;;20.33;43.56;95768.44;4970092;28;20167;-64
2022/11/27 06:33:37;;;;;;;7.72;6.50;;;;;;;21.06;43.55;95873.66;4960482;28;20057;-64
2022/11/27 06:36:03;;;;;;;7.57;6.18;;;;;;;20.88;43.46;95851.44;4970529;28;20059;-63
2022/11/27 06:38:31;;;;;;;8.48;6.45;;;;;;;21.05;43.41;95872.16;4943461;28;20042;-62
2022/11/27 06:41:04;;;;;;;9.32;6.40;;;;;;;20.99;43.44;95863.16;4966385;28;20026;-60
2022/11/27 06:43:30;;;;;;;7.72;6.30;;;;;;;20.14;43.28;95739.28;4968868;28;20120;-63
2022/11/27 06:45:56;;;;;;;7.22;6.35;;;;;;;20.98;43.32;95888.84;4967865;28;20046;-62
2022/11/27 06:48:22;;;;;;;7.80;6.65;;;;;;;20.98;43.38;95872.56;4972065;28;20542;-62
2022/11/27 06:50:47;;;;;;;7.15;6.28;;;;;;;21.06;43.28;95900.81;4971826;28;20046;-62
2022/11/27 06:53:13;;;;;;;8.40;6.63;;;;;;;20.71;43.45;95836.09;4956288;28;20626;-64
2022/11/27 06:55:38;;;;;;;7.40;5.95;;;;;;;21.04;43.15;95876.06;4985558;28;20853;-63
2022/11/27 06:58:04;;;;;;;7.93;6.18;;;;;;;20.25;43.21;95772.75;4988237;28;20061;-63
2022/11/27 07:00:29;;;;;;;8.38;7.00;;;;;;;21.07;43.37;95883.28;4970153;28;20046;-62
2022/11/27 07:02:54;;;;;;;8.20;6.32;;;;;;;21.19;42.94;95887.63;4971803;28;20038;-62
2022/11/27 07:05:20;;;;;;;8.05;6.43;;;;;;;21.17;42.98;95890.09;4993469;28;20045;-62
2022/11/27 07:07:45;;;;;;;8.73;6.57;;;;;;;21.14;42.67;95853.00;4971694;28;20030;-62
2022/11/27 07:10:11;;;;;;;8.10;6.50;;;;;;;21.31;42.75;95883.84;4985753;28;20054;-63
2022/11/27 07:12:36;;;;;;;7.53;6.13;;;;;;;21.26;43.06;95843.78;4984342;28;20057;-62
2022/11/27 07:15:02;;;;;;;8.55;6.28;;;;;;;21.28;42.80;95857.63;4984470;28;20053;-62
2022/11/27 07:17:28;;;;;;;8.23;6.50;;;;;;;21.49;42.45;95872.75;4984968;28;20422;-64
2022/11/27 07:19:53;;;;;;;8.40;6.50;;;;;;;21.75;42.39;95865.38;4986296;28;20482;-62
2022/11/27 07:22:19;;;;;;;7.15;6.20;;;;;;;21.83;42.00;95880.06;4993853;28;20046;-61
2022/11/27 07:24:44;;;;;;;8.10;6.03;;;;;;;21.96;41.72;95868.34;4989329;28;20034;-63
2022/11/27 07:27:09;;;;;;;8.50;6.35;;;;;;;21.86;42.14;95847.22;4987674;28;20057;-64
2022/11/27 07:29:35;;;;;;;7.65;6.32;;;;;;;22.01;41.65;95869.63;4956860;28;20053;-64
2022/11/27 07:32:00;;;;;;;8.57;6.13;;;;;;;21.91;41.52;95853.94;4988891;28;20034;-61
2022/11/27 07:34:26;;;;;;;6.85;5.75;;;;;;;21.97;40.86;95856.25;4989604;28;20446;-61
2022/11/27 07:36:52;;;;;;;7.68;6.10;;;;;;;22.05;41.04;95849.16;4989435;28;20454;-62
2022/11/27 07:39:17;;;;;;;6.93;5.85;;;;;;;22.12;41.19;95858.84;4991934;28;20038;-61
2022/11/27 07:41:43;;;;;;;7.22;5.82;;;;;;;21.81;41.28;95809.09;4954143;28;20059;-59
2022/11/27 07:44:08;;;;;;;7.43;5.78;;;;;;;22.20;41.11;95854.50;4971884;28;20027;-63
2022/11/27 07:46:33;;;;;;;7.57;5.97;;;;;;;22.34;41.13;95862.56;4974699;28;20061;-63
2022/11/27 07:48:59;;;;;;;7.00;6.10;;;;;;;22.33;41.07;95863.81;4966795;28;20038;-62
2022/11/27 07:51:24;;;;;;;7.63;6.03;;;;;;;22.34;41.06;95870.72;4995501;28;20625;-62
2022/11/27 07:53:53;;;;;;;6.88;6.07;;;;;;;22.25;40.92;95840.94;4986070;28;20045;-63
2022/11/27 07:56:18;;;;;;;7.88;6.35;;;;;;;22.30;40.78;95832.13;4983938;28;20042;-63
2022/11/27 07:58:43;;;;;;;7.93;5.72;;;;;;;21.75;40.45;95726.75;4958902;28;20050;-62
2022/11/27 08:01:12;;;;;;;6.82;6.13;;;;;;;22.71;40.09;95864.09;4956360;28;20116;-64
2022/11/27 08:03:37;;;;;;;7.55;6.20;;;;;;;22.78;40.18;95860.19;4975080;28;20148;-65
2022/11/27 08:06:03;;;;;;;7.30;6.07;;;;;;;22.89;39.83;95861.75;4977860;28;20601;-65
2022/11/27 08:08:29;;;;;;;7.47;6.40;;;;;;;22.88;39.85;95864.94;4985199;28;20144;-63
2022/11/27 08:10:54;;;;;;;7.68;6.10;;;;;;;22.71;40.22;95852.47;4963318;28;20473;-61
2022/11/27 08:13:20;;;;;;;6.78;6.05;;;;;;;22.88;40.08;95864.22;4989473;28;20046;-62
2022/11/27 08:15:46;;;;;;;7.60;6.40;;;;;;;22.69;40.25;95852.94;4970199;28;20458;-61
2022/11/27 08:18:11;;;;;;;8.00;6.38;;;;;;;22.98;40.20;95856.13;4969053;28;20502;-60
2022/11/27 08:20:37;;;;;;;8.05;5.78;;;;;;;23.26;39.44;95856.28;4991217;28;20101;-63
2022/11/27 08:23:02;;;;;;;8.20;6.40;;;;;;;23.27;39.59;95847.63;4977439;28;20486;-61
2022/11/27 08:25:27;;;;;;;7.22;5.70;;;;;;;22.56;39.57;95778.38;4953545;28;20554;-62
2022/11/27 08:27:53;;;;;;;8.23;6.30;;;;;;;23.19;40.00;95873.84;4967881;28;20427;-62
2022/11/27 08:30:18;;;;;;;11.10;6.25;;;;;;;23.12;40.22;95863.44;4979323;28;20130;-62
2022/11/27 08:32:44;;;;;;;8.18;6.40;;;;;;;23.23;39.59;95862.72;4969985;28;20053;-63
2022/11/27 08:35:10;;;;;;;7.05;5.88;;;;;;;21.68;39.93;95649.09;4985721;28;20041;-62
2022/11/27 08:37:35;;;;;;;8.57;6.28;;;;;;;22.92;39.71;95832.81;4974538;28;20030;-63
2022/11/27 08:40:01;;;;;;;6.72;5.90;;;;;;;23.09;39.82;95858.19;4968856;28;20038;-64
2022/11/27 08:42:26;;;;;;;7.32;6.28;;;;;;;23.12;39.92;95855.25;4956359;28;20534;-62
2022/11/27 08:44:52;;;;;;;9.00;6.00;;;;;;;23.08;39.41;95860.16;4985174;28;20446;-63
2022/11/27 08:47:17;;;;;;;9.32;6.75;;;;;;;23.22;39.52;95853.81;4973289;28;20034;-62
2022/11/27 08:49:43;;;;;;;8.05;6.38;;;;;;;23.20;39.39;95836.44;4973222;28;20038;-62
2022/11/27 08:52:09;;;;;;;7.10;5.78;;;;;;;23.23;39.42;95852.56;4983892;28;20716;-61
2022/11/27 08:54:35;;;;;;;7.90;6.40;;;;;;;23.11;39.70;95829.22;4973130;28;20065;-61
2022/11/27 08:57:00;;;;;;;8.25;6.07;;;;;;;23.49;39.16;95853.19;4978299;28;20042;-62
2022/11/27 08:59:25;;;;;;;8.02;6.45;;;;;;;23.54;38.83;95836.09;4986546;28;20042;-62
2022/11/27 09:01:51;;;;;;;7.30;6.03;;;;;;;23.46;38.81;95837.81;4984161;28;20182;-63
2022/11/27 09:04:16;;;;;;;8.20;6.20;;;;;;;23.29;38.81;95812.47;4982786;28;20049;-60
2022/11/27 09:06:43;;;;;;;8.02;6.63;;;;;;;23.61;38.61;95838.38;4967405;28;20053;-64
2022/11/27 09:09:09;;;;;;;7.88;6.70;;;;;;;23.38;39.31;95842.25;4967105;28;20157;-64
2022/11/27 09:11:34;;;;;;;8.35;6.50;;;;;;;23.61;38.75;95833.66;4970069;28;20046;-63
2022/11/27 09:14:00;;;;;;;7.57;6.10;;;;;;;23.46;38.87;95859.63;4999051;28;20026;-61
2022/11/27 09:16:26;;;;;;;8.52;6.50;;;;;;;23.53;39.04;95826.44;4973548;28;20050;-62
2022/11/27 09:18:53;;;;;;;6.97;6.22;;;;;;;23.54;38.79;95827.91;4991258;28;20119;-62
2022/11/27 09:21:20;;;;;;;7.75;6.15;;;;;;;23.59;38.60;95857.22;4985577;28;20084;-62
2022/11/27 09:23:45;;;;;;;9.15;6.60;;;;;;;23.30;38.99;95796.84;4964866;28;20052;-66
2022/11/27 09:26:15;;;;;;;8.73;7.10;;;;;;;23.53;38.77;95838.09;4985581;28;20026;-61
2022/11/27 09:28:40;;;;;;;6.93;6.22;;;;;;;23.87;38.28;95823.34;4987488;28;20030;-62
2022/11/27 09:31:07;;;;;;;7.85;6.60;;;;;;;23.74;38.53;95792.34;4967851;28;20584;-61
2022/11/27 09:33:34;;;;;;;8.18;6.15;;;;;;;23.67;38.17;95792.81;4962419;28;20038;-62
2022/11/27 09:36:31;;;;;;;9.02;6.72;;;;;;;23.79;38.66;95810.69;4986762;28;20173;-63
2022/11/27 09:38:57;;;;;;;7.95;6.45;;;;;;;23.19;38.48;95732.16;4966712;28;20074;-64
2022/11/27 09:41:52;;;;;;;7.40;6.45;;;;;;;23.77;38.50;95807.72;4972229;28;20030;-61
2022/11/27 09:44:52;;;;;;;8.85;7.03;;;;;;;23.86;38.51;95810.22;4968464;28;20050;-62
2022/11/27 09:47:44;;;;;;;7.80;6.60;;;;;;;23.84;38.63;95804.47;4965208;28;20043;-61
2022/11/27 09:50:18;;;;;;;8.63;6.78;;;;;;;23.06;38.87;95690.25;4991526;28;20046;-63
2022/11/27 09:52:52;;;;;;;7.38;6.20;;;;;;;24.00;38.41;95799.78;4955553;28;20092;-61
2022/11/27 09:55:24;;;;;;;6.72;5.93;;;;;;;23.95;38.56;95803.28;4968953;28;20039;-61
2022/11/27 09:57:56;;;;;;;7.88;6.60;;;;;;;23.96;38.14;95796.59;4990787;28;20125;-62
2022/11/27 10:00:22;;;;;;;8.15;6.93;;;;;;;24.08;38.11;95778.97;4983587;28;20582;-62
2022/11/27 10:02:48;;;;;;;7.40;6.10;;;;;;;24.11;38.19;95777.22;4972545;28;20049;-62
2022/11/27 10:05:37;;;;;;;7.15;6.15;;;;;;;24.14;37.99;95776.25;4967126;28;20045;-61
2022/11/27 10:08:06;;;;;;;;;;;;;;;24.00;38.03;95772.50;4996212;28;20038;-60
2022/11/27 10:10:45;;;;;;;8.02;6.75;;;;;;;24.17;38.30;95775.25;4983680;28;20401;-62
2022/11/27 10:13:17;;;;;;;7.93;6.40;;;;;;;24.17;37.85;95770.56;5000810;28;20045;-63
2022/11/27 10:15:48;;;;;;;8.55;6.82;;;;;;;24.11;37.99;95767.06;4978043;28;20085;-61
2022/11/27 10:18:28;;;;;;;7.80;6.28;;;;;;;24.15;37.81;95745.00;4998648;28;20057;-63
2022/11/27 10:21:07;;;;;;;7.65;6.63;;;;;;;24.33;37.79;95761.63;4989651;28;20099;-61
2022/11/27 10:23:45;;;;;;;7.80;6.80;;;;;;;24.48;37.38;95768.34;4991003;28;20526;-62
2022/11/27 10:26:18;;;;;;;8.80;6.90;;;;;;;24.44;37.34;95756.91;4983468;28;20034;-63
2022/11/27 10:28:43;;;;;;;8.10;6.90;;;;;;;24.37;37.55;95746.50;4980989;28;20291;-63
2022/11/27 10:31:11;;;;;;;7.88;6.68;;;;;;;24.32;38.01;95741.03;4993119;28;20518;-63
2022/11/27 10:33:46;;;;;;;7.60;6.60;;;;;;;24.45;37.89;95774.03;5003019;28;20046;-62
2022/11/27 10:36:17;;;;;;;7.57;6.65;;;;;;;23.28;37.67;95554.06;4972606;28;20048;-61
2022/11/27 10:38:43;;;;;;;8.88;7.20;;;;;;;24.69;36.98;95738.75;4993891;28;20064;-61
2022/11/27 10:41:18;;;;;;;8.40;7.00;;;;;;;24.79;36.85;95726.31;4961227;28;20030;-61
2022/11/27 10:43:44;;;;;;;7.68;6.88;;;;;;;24.47;37.82;95725.16;4989471;28;20095;-63
2022/11/27 10:46:35;;;;;;;7.90;6.72;;;;;;;23.75;38.46;95613.81;4989485;28;20410;-63
2022/11/27 10:49:01;;;;;;;9.35;6.90;;;;;;;24.22;38.60;95684.47;4999831;28;22045;-62
2022/11/27 10:51:31;;;;;;;8.70;6.90;;;;;;;23.86;38.34;95613.81;4949962;28;20543;-62
2022/11/27 10:53:56;;;;;;;8.63;7.07;;;;;;;24.51;38.69;95717.44;4979248;28;20116;-62
2022/11/27 10:56:42;;;;;;;9.25;7.80;;;;;;;24.46;39.10;95720.94;4970387;28;20429;-64
2022/11/27 10:59:14;;;;;;;8.40;6.60;;;;;;;24.59;38.51;95715.69;4940882;28;20471;-63
2022/11/27 11:01:47;;;;;;;8.55;6.75;;;;;;;24.78;38.51;95703.69;4971872;28;20050;-60
2022/11/27 11:04:13;;;;;;;8.10;6.68;;;;;;;24.40;39.29;95692.88;4961862;28;20049;-60
2022/11/27 11:06:44;;;;;;;9.10;6.80;;;;;;;24.30;39.12;95686.16;4957818;28;20951;-62
2022/11/27 11:09:14;;;;;;;8.40;6.68;;;;;;;24.50;38.78;95710.50;4987739;28;20401;-60
2022/11/27 11:11:39;;;;;;;9.60;7.13;;;;;;;24.41;38.90;95702.56;4989603;28;20041;-64
2022/11/27 11:14:18;;;;;;;9.38;7.13;;;;;;;24.54;38.79;95700.03;4961867;28;20049;-62
2022/11/27 11:16:43;;;;;;;9.77;7.38;;;;;;;24.62;38.49;95701.00;4966173;28;20041;-63
2022/11/27 11:19:31;;;;;;;8.27;7.05;;;;;;;24.32;38.91;95700.06;4965516;28;20034;-62
2022/11/27 11:22:03;;;;;;;8.75;7.32;;;;;;;24.42;38.53;95687.66;4971172;28;20123;-63
2022/11/27 11:24:29;;;;;;;13.15;10.38;;;;;;;23.64;35.00;95586.56;4980079;28;20050;-63
2022/11/27 11:27:09;;;;;;;8.98;7.90;;;;;;;24.42;38.07;95698.59;4957983;28;20050;-63
2022/11/27 11:29:39;;;;;;;9.48;7.82;;;;;;;24.18;38.30;95649.22;4965550;28;20038;-63
2022/11/27 11:32:14;;;;;;;;;;;;;;;24.41;38.48;95680.72;4991196;28;20320;-63
2022/11/27 11:34:44;;;;;;;8.93;7.50;;;;;;;24.68;38.35;95674.44;5000815;28;19968;-61
2022/11/27 11:37:32;;;;;;;8.73;7.10;;;;;;;24.57;38.12;95679.94;4982426;28;20801;-61
2022/11/27 11:40:05;;;;;;;8.32;6.78;;;;;;;24.52;37.92;95658.84;4984548;28;20046;-62
2022/11/27 11:42:33;;;;;;;9.75;7.75;;;;;;;23.78;38.02;95563.72;4957846;28;20062;-62
2022/11/27 11:45:02;;;;;;;9.40;7.35;;;;;;;24.08;38.34;95612.53;4994425;28;20513;-62
2022/11/27 11:47:28;;;;;;;8.75;7.30;;;;;;;23.15;38.01;95463.91;4966984;28;20056;-61